sensor_id;sensor_type;location;lat;lon;timestamp;P1;durP1;ratioP1;P2;durP2;ratioP2
63900;SDS011;50538;53.482;10.294;2023-04-15T00:37:02;1.77;;;0.90;;
63900;SDS011;50538;53.482;10.294;2023-04-15T00:58:12;5.25;;;1.50;;
63900;SDS011;50538;53.482;10.294;2023-04-15T01:18:45;3.72;;;1.45;;
63900;SDS011;50538;53.482;10.294;2023-04-15T01:50:36;2.77;;;1.40;;
63900;SDS011;50538;53.482;10.294;2023-04-15T02:01:11;3.42;;;1.40;;
63900;SDS011;50538;53.482;10.294;2023-04-15T02:11:36;2.55;;;1.15;;
63900;SDS011;50538;53.482;10.294;2023-04-15T02:21:38;4.28;;;1.85;;
63900;SDS011;50538;53.482;10.294;2023-04-15T02:42:53;8.40;;;2.22;;
63900;SDS011;50538;53.482;10.294;2023-04-15T02:53:31;9.90;;;2.40;;
63900;SDS011;50538;53.482;10.294;2023-04-15T03:24:58;7.13;;;2.42;;
63900;SDS011;50538;53.482;10.294;2023-04-15T03:55:55;6.95;;;1.95;;
63900;SDS011;50538;53.482;10.294;2023-04-15T04:06:10;9.15;;;2.85;;
63900;SDS011;50538;53.482;10.294;2023-04-15T04:16:23;6.18;;;2.65;;
63900;SDS011;50538;53.482;10.294;2023-04-15T04:27:01;8.95;;;2.88;;
63900;SDS011;50538;53.482;10.294;2023-04-15T05:08:54;14.40;;;4.85;;
63900;SDS011;50538;53.482;10.294;2023-04-15T05:19:13;9.05;;;3.17;;
63900;SDS011;50538;53.482;10.294;2023-04-15T05:40:10;12.15;;;4.43;;
63900;SDS011;50538;53.482;10.294;2023-04-15T05:51:08;11.27;;;3.83;;
63900;SDS011;50538;53.482;10.294;2023-04-15T06:01:15;13.88;;;5.07;;
63900;SDS011;50538;53.482;10.294;2023-04-15T06:22:57;15.68;;;5.28;;
63900;SDS011;50538;53.482;10.294;2023-04-15T06:54:07;14.68;;;4.93;;
63900;SDS011;50538;53.482;10.294;2023-04-15T07:04:37;12.75;;;4.80;;
63900;SDS011;50538;53.482;10.294;2023-04-15T07:35:56;15.35;;;6.13;;
63900;SDS011;50538;53.482;10.294;2023-04-15T07:56:45;15.52;;;5.93;;
63900;SDS011;50538;53.482;10.294;2023-04-15T08:50:43;21.50;;;7.60;;
63900;SDS011;50538;53.482;10.294;2023-04-15T10:08:20;11.75;;;5.00;;
63900;SDS011;50538;53.482;10.294;2023-04-15T10:40:41;12.13;;;4.65;;
63900;SDS011;50538;53.482;10.294;2023-04-15T11:13:27;16.05;;;6.05;;
63900;SDS011;50538;53.482;10.294;2023-04-15T11:24:51;16.83;;;6.90;;
63900;SDS011;50538;53.482;10.294;2023-04-15T11:35:56;14.68;;;4.80;;
63900;SDS011;50538;53.482;10.294;2023-04-15T11:56:49;10.48;;;5.13;;
63900;SDS011;50538;53.482;10.294;2023-04-15T12:07:11;13.95;;;4.88;;
63900;SDS011;50538;53.482;10.294;2023-04-15T12:17:30;10.43;;;4.70;;
63900;SDS011;50538;53.482;10.294;2023-04-15T12:27:49;8.68;;;4.22;;
63900;SDS011;50538;53.482;10.294;2023-04-15T12:38:16;12.98;;;4.80;;
63900;SDS011;50538;53.482;10.294;2023-04-15T12:59:35;12.00;;;4.85;;
63900;SDS011;50538;53.482;10.294;2023-04-15T13:21:13;11.73;;;5.00;;
63900;SDS011;50538;53.482;10.294;2023-04-15T14:03:18;10.30;;;4.50;;
63900;SDS011;50538;53.482;10.294;2023-04-15T14:23:52;9.40;;;3.70;;
63900;SDS011;50538;53.482;10.294;2023-04-15T14:54:49;8.48;;;4.38;;
63900;SDS011;50538;53.482;10.294;2023-04-15T15:05:13;9.13;;;3.67;;
63900;SDS011;50538;53.482;10.294;2023-04-15T15:15:34;9.43;;;4.50;;
63900;SDS011;50538;53.482;10.294;2023-04-15T15:36:49;12.50;;;4.50;;
63900;SDS011;50538;53.482;10.294;2023-04-15T16:07:56;7.20;;;3.28;;
63900;SDS011;50538;53.482;10.294;2023-04-15T16:18:19;10.98;;;4.90;;
63900;SDS011;50538;53.482;10.294;2023-04-15T16:28:38;9.93;;;4.30;;
63900;SDS011;50538;53.482;10.294;2023-04-15T16:49:54;13.27;;;5.28;;
63900;SDS011;50538;53.482;10.294;2023-04-15T17:00:22;10.38;;;4.78;;
63900;SDS011;50538;53.482;10.294;2023-04-15T17:32:47;13.17;;;5.70;;
63900;SDS011;50538;53.482;10.294;2023-04-15T17:43:01;15.77;;;6.18;;
63900;SDS011;50538;53.482;10.294;2023-04-15T17:53:16;12.27;;;5.50;;
63900;SDS011;50538;53.482;10.294;2023-04-15T18:03:55;13.38;;;5.68;;
63900;SDS011;50538;53.482;10.294;2023-04-15T18:14:19;11.45;;;4.93;;
63900;SDS011;50538;53.482;10.294;2023-04-15T18:24:27;12.63;;;5.18;;
63900;SDS011;50538;53.482;10.294;2023-04-15T18:34:29;11.90;;;5.65;;
63900;SDS011;50538;53.482;10.294;2023-04-15T18:45:29;11.38;;;4.65;;
63900;SDS011;50538;53.482;10.294;2023-04-15T18:56:03;17.00;;;5.70;;
63900;SDS011;50538;53.482;10.294;2023-04-15T19:06:03;13.88;;;5.53;;
63900;SDS011;50538;53.482;10.294;2023-04-15T19:16:09;13.55;;;5.15;;
63900;SDS011;50538;53.482;10.294;2023-04-15T19:26:19;11.93;;;5.00;;
63900;SDS011;50538;53.482;10.294;2023-04-15T19:36:20;13.38;;;5.43;;
63900;SDS011;50538;53.482;10.294;2023-04-15T19:46:32;13.60;;;6.13;;
63900;SDS011;50538;53.482;10.294;2023-04-15T19:56:52;12.48;;;5.57;;
63900;SDS011;50538;53.482;10.294;2023-04-15T20:07:13;12.45;;;3.85;;
63900;SDS011;50538;53.482;10.294;2023-04-15T20:17:20;7.87;;;3.87;;
63900;SDS011;50538;53.482;10.294;2023-04-15T20:28:12;13.80;;;5.25;;
63900;SDS011;50538;53.482;10.294;2023-04-15T20:38:33;10.63;;;5.20;;
63900;SDS011;50538;53.482;10.294;2023-04-15T20:48:55;13.48;;;5.28;;
63900;SDS011;50538;53.482;10.294;2023-04-15T20:59:01;11.98;;;3.83;;
63900;SDS011;50538;53.482;10.294;2023-04-15T21:09:27;12.65;;;4.90;;
63900;SDS011;50538;53.482;10.294;2023-04-15T21:19:34;11.15;;;3.92;;
63900;SDS011;50538;53.482;10.294;2023-04-15T21:29:35;10.18;;;5.10;;
63900;SDS011;50538;53.482;10.294;2023-04-15T21:39:35;7.22;;;3.22;;
63900;SDS011;50538;53.482;10.294;2023-04-15T21:49:36;15.50;;;5.07;;
63900;SDS011;50538;53.482;10.294;2023-04-15T21:59:36;12.40;;;4.65;;
63900;SDS011;50538;53.482;10.294;2023-04-15T22:09:36;11.90;;;4.60;;
63900;SDS011;50538;53.482;10.294;2023-04-15T22:19:37;11.23;;;4.88;;
63900;SDS011;50538;53.482;10.294;2023-04-15T22:29:37;7.15;;;3.78;;
63900;SDS011;50538;53.482;10.294;2023-04-15T22:39:38;9.30;;;4.60;;
63900;SDS011;50538;53.482;10.294;2023-04-15T22:49:38;6.80;;;3.28;;
63900;SDS011;50538;53.482;10.294;2023-04-15T22:59:38;12.07;;;4.72;;
63900;SDS011;50538;53.482;10.294;2023-04-15T23:09:39;13.85;;;4.82;;
63900;SDS011;50538;53.482;10.294;2023-04-15T23:19:40;11.10;;;4.57;;
63900;SDS011;50538;53.482;10.294;2023-04-15T23:29:40;7.93;;;3.83;;
63900;SDS011;50538;53.482;10.294;2023-04-15T23:39:41;12.23;;;4.55;;
63900;SDS011;50538;53.482;10.294;2023-04-15T23:49:41;11.25;;;4.93;;
63900;SDS011;50538;53.482;10.294;2023-04-15T23:59:41;7.97;;;4.03;;
